createdAt,value
2018-02-24T00:00:41.206Z,54.38
2018-02-24T00:01:41.203Z,54.52
2018-02-24T00:02:41.201Z,54.47
2018-02-24T00:03:41.202Z,54.5
2018-02-24T00:04:41.360Z,54.42
2018-02-24T00:05:41.205Z,54.73
2018-02-24T00:06:41.211Z,54.61
2018-02-24T00:07:41.210Z,54.61
2018-02-24T00:08:41.373Z,54.64
2018-02-24T00:09:41.385Z,54.55
2018-02-24T00:10:41.379Z,54.46
2018-02-24T00:11:41.398Z,54.88
2018-02-24T00:12:41.380Z,54.78
2018-02-24T00:13:41.381Z,54.8
2018-02-24T00:14:41.395Z,55.15
2018-02-24T00:15:41.385Z,54.97
2018-02-24T00:16:41.406Z,54.65
2018-02-24T00:17:41.383Z,54.66
2018-02-24T00:18:41.391Z,54.96
2018-02-24T00:19:41.391Z,54.95
2018-02-24T00:20:41.422Z,54.99
2018-02-24T00:21:41.242Z,55.25
2018-02-24T00:22:41.246Z,55.01
2018-02-24T00:23:41.250Z,55.19
2018-02-24T00:24:41.262Z,55.06
2018-02-24T00:25:41.262Z,54.98
2018-02-24T00:26:41.424Z,55.03
2018-02-24T00:27:41.431Z,55.12
2018-02-24T00:28:41.274Z,55.09
2018-02-24T00:29:41.272Z,55.17
2018-02-24T00:30:41.429Z,55.29
2018-02-24T00:31:41.460Z,55.3
2018-02-24T00:32:41.440Z,55.24
2018-02-24T00:33:41.453Z,55.31
2018-02-24T00:34:41.455Z,55.38
2018-02-24T00:35:41.454Z,55.38
2018-02-24T00:36:41.779Z,55.33
2018-02-24T00:37:41.456Z,55.25
2018-02-24T00:38:41.302Z,55.39
2018-02-24T00:39:41.473Z,55.38
2018-02-24T00:40:41.318Z,55.38
2018-02-24T00:41:41.345Z,55.44
2018-02-24T00:42:41.324Z,55.5
2018-02-24T00:43:41.334Z,55.26
2018-02-24T00:44:41.338Z,55.35
2018-02-24T00:45:41.347Z,55.31
2018-02-24T00:46:41.365Z,55.11
2018-02-24T00:47:41.345Z,55.21
2018-02-24T00:48:41.352Z,55.27
2018-02-24T00:49:41.359Z,55.19
2018-02-24T00:50:41.356Z,55.35
2018-02-24T00:51:41.360Z,55.33
2018-02-24T00:52:41.365Z,55.19
2018-02-24T00:53:41.371Z,55.45
2018-02-24T00:54:41.378Z,55.58
2018-02-24T00:55:41.371Z,55.29
2018-02-24T00:56:41.376Z,55.42
2018-02-24T00:57:41.379Z,55.41
2018-02-24T00:58:41.387Z,55.43
2018-02-24T00:59:41.376Z,55.2
2018-02-24T01:00:41.378Z,55.41
2018-02-24T01:01:41.386Z,55.43
2018-02-24T01:02:41.381Z,55.31
2018-02-24T01:03:41.389Z,55.49
2018-02-24T01:04:41.397Z,55.42
2018-02-24T01:05:41.397Z,55.45
2018-02-24T01:06:41.401Z,55.51
2018-02-24T01:07:41.401Z,55.68
2018-02-24T01:08:41.405Z,55.72
2018-02-24T01:09:41.424Z,55.71
2018-02-24T01:10:41.411Z,55.72
2018-02-24T01:11:41.473Z,55.72
2018-02-24T01:12:41.420Z,55.65
2018-02-24T01:13:41.421Z,55.83
2018-02-24T01:14:41.432Z,55.85
2018-02-24T01:15:41.587Z,55.79
2018-02-24T01:16:41.587Z,55.93
2018-02-24T01:17:41.593Z,56.1
2018-02-24T01:18:41.600Z,55.86
2018-02-24T01:19:41.604Z,55.95
2018-02-24T01:20:41.648Z,56.07
2018-02-24T01:21:41.464Z,56.08
2018-02-24T01:22:41.626Z,56.03
2018-02-24T01:23:41.630Z,56.04
2018-02-24T01:24:41.626Z,56.06
2018-02-24T01:25:41.651Z,56.14
2018-02-24T01:26:41.641Z,56.4
2018-02-24T01:27:41.491Z,56.02
2018-02-24T01:28:41.489Z,55.94
2018-02-24T01:29:41.655Z,55.95
2018-02-24T01:30:41.522Z,56.03
2018-02-24T01:31:41.663Z,56.14
2018-02-24T01:32:41.502Z,56.26
2018-02-24T01:33:41.507Z,56.36
2018-02-24T01:34:41.504Z,56.3
2018-02-24T01:35:41.883Z,56.37
2018-02-24T01:36:41.519Z,56.47
2018-02-24T01:37:41.508Z,56.43
2018-02-24T01:38:41.518Z,56.4
2018-02-24T01:39:41.513Z,56.39
2018-02-24T01:40:41.820Z,56.46
2018-02-24T01:41:41.525Z,56.51
2018-02-24T01:42:41.522Z,56.57
2018-02-24T01:43:41.529Z,56.66
2018-02-24T01:44:41.540Z,56.67
2018-02-24T01:45:41.558Z,56.37
2018-02-24T01:46:41.561Z,56.24
2018-02-24T01:47:41.702Z,56.42
2018-02-24T01:48:41.703Z,56.42
2018-02-24T01:49:41.710Z,56.56
2018-02-24T01:50:41.742Z,56.51
2018-02-24T01:51:41.560Z,56.59
2018-02-24T01:52:41.563Z,56.54
2018-02-24T01:53:41.562Z,56.65
2018-02-24T01:54:41.568Z,56.52
2018-02-24T01:55:41.589Z,56.72
2018-02-24T01:56:41.576Z,56.36
2018-02-24T01:57:41.587Z,56.46
2018-02-24T01:58:41.590Z,56.5
2018-02-24T01:59:41.581Z,56.4
2018-02-24T02:00:41.595Z,56.54
2018-02-24T02:01:41.957Z,56.44
2018-02-24T02:02:41.600Z,56.46
2018-02-24T02:03:41.596Z,56.71
2018-02-24T02:04:41.600Z,56.61
2018-02-24T02:05:41.597Z,56.73
2018-02-24T02:06:41.644Z,56.62
2018-02-24T02:07:41.616Z,56.59
2018-02-24T02:08:41.611Z,56.54
2018-02-24T02:09:41.621Z,56.51
2018-02-24T02:10:41.623Z,56.59
2018-02-24T02:11:41.644Z,56.75
2018-02-24T02:12:41.625Z,56.72
2018-02-24T02:13:41.633Z,56.87
2018-02-24T02:14:41.635Z,56.76
2018-02-24T02:15:41.642Z,56.69
2018-02-24T02:16:41.694Z,56.78
2018-02-24T02:17:41.646Z,56.79
2018-02-24T02:18:41.650Z,56.91
2018-02-24T02:19:41.651Z,56.87
2018-02-24T02:20:41.650Z,56.94
2018-02-24T02:21:41.655Z,56.67
2018-02-24T02:22:41.656Z,56.8
2018-02-24T02:23:41.663Z,56.95
2018-02-24T02:24:41.668Z,57.04
2018-02-24T02:25:41.670Z,57.09
2018-02-24T02:26:41.827Z,56.94
2018-02-24T02:27:41.851Z,57.11
2018-02-24T02:28:41.828Z,57.32
2018-02-24T02:29:41.670Z,57.11
2018-02-24T02:30:41.832Z,57.06
2018-02-24T02:31:41.833Z,57.1
2018-02-24T02:32:41.834Z,57.16
2018-02-24T02:33:41.843Z,57.33
2018-02-24T02:34:41.857Z,57.35
2018-02-24T02:35:41.849Z,57.29
2018-02-24T02:36:41.692Z,57.25
2018-02-24T02:37:41.693Z,57.24
2018-02-24T02:38:41.862Z,57.22
2018-02-24T02:39:41.859Z,57.33
2018-02-24T02:40:41.704Z,57.26
2018-02-24T02:41:41.713Z,57.44
2018-02-24T02:42:41.734Z,57.4
2018-02-24T02:43:41.706Z,57.23
2018-02-24T02:44:41.718Z,57.32
2018-02-24T02:45:41.723Z,57.31
2018-02-24T02:46:41.718Z,57.47
2018-02-24T02:47:41.733Z,57.59
2018-02-24T02:48:41.729Z,57.49
2018-02-24T02:49:41.728Z,57.69
2018-02-24T02:50:41.731Z,57.66
2018-02-24T02:51:41.733Z,57.79
2018-02-24T02:52:41.736Z,57.8
2018-02-24T02:53:41.757Z,57.88
2018-02-24T02:54:41.737Z,57.92
2018-02-24T02:55:41.744Z,57.85
2018-02-24T02:56:41.906Z,58.04
2018-02-24T02:57:41.918Z,57.86
2018-02-24T02:58:41.931Z,57.96
2018-02-24T02:59:41.752Z,57.79
2018-02-24T03:00:41.916Z,57.87
2018-02-24T03:01:41.920Z,57.89
2018-02-24T03:02:41.756Z,57.9
2018-02-24T03:03:41.761Z,57.98
2018-02-24T03:04:41.760Z,57.81
2018-02-24T03:05:41.765Z,57.88
2018-02-24T03:06:41.760Z,57.89
2018-02-24T03:07:41.767Z,58.11
2018-02-24T03:08:41.785Z,58.22
2018-02-24T03:09:41.788Z,58.08
2018-02-24T03:10:41.777Z,58.05
2018-02-24T03:11:41.785Z,58.19
2018-02-24T03:12:41.787Z,58.29
2018-02-24T03:13:42.151Z,58.19
2018-02-24T03:14:41.793Z,58.3
2018-02-24T03:15:41.796Z,58.41
2018-02-24T03:16:41.796Z,58.24
2018-02-24T03:17:41.799Z,58.2
2018-02-24T03:18:41.828Z,58.31
2018-02-24T03:19:41.799Z,58.4
2018-02-24T03:20:41.806Z,58.53
2018-02-24T03:21:41.805Z,58.32
2018-02-24T03:22:41.809Z,58.37
2018-02-24T03:23:41.815Z,58.46
2018-02-24T03:24:41.818Z,58.42
2018-02-24T03:25:41.819Z,58.47
2018-02-24T03:26:41.821Z,58.72
2018-02-24T03:27:41.821Z,58.58
2018-02-24T03:28:41.823Z,58.54
2018-02-24T03:29:41.829Z,58.6
2018-02-24T03:30:41.834Z,58.63
2018-02-24T03:31:41.837Z,58.67
2018-02-24T03:32:41.830Z,58.73
2018-02-24T03:33:41.841Z,58.87
2018-02-24T03:34:41.844Z,58.9
2018-02-24T03:35:41.853Z,58.82
2018-02-24T03:36:41.854Z,58.73
2018-02-24T03:37:41.862Z,58.81
2018-02-24T03:38:42.016Z,58.82
2018-02-24T03:39:42.016Z,59
2018-02-24T03:40:42.023Z,58.87
2018-02-24T03:41:42.029Z,58.91
2018-02-24T03:42:42.036Z,58.92
2018-02-24T03:43:42.051Z,58.96
2018-02-24T03:44:41.907Z,58.98
2018-02-24T03:45:42.046Z,58.91
2018-02-24T03:46:42.053Z,58.96
2018-02-24T03:47:42.053Z,59.03
2018-02-24T03:48:42.067Z,59.06
2018-02-24T03:49:41.912Z,59.11
2018-02-24T03:50:42.070Z,59.19
2018-02-24T03:51:42.075Z,59.14
2018-02-24T03:52:42.072Z,59.24
2018-02-24T03:53:42.074Z,59.08
2018-02-24T03:54:42.070Z,59.28
2018-02-24T03:55:42.081Z,59.41
2018-02-24T03:56:42.090Z,59.57
2018-02-24T03:57:42.081Z,59.04
2018-02-24T03:58:42.089Z,59.29
2018-02-24T03:59:41.932Z,59.12
2018-02-24T04:00:42.094Z,59.01
2018-02-24T04:01:41.934Z,58.97
2018-02-24T04:02:42.090Z,58.95
2018-02-24T04:03:41.937Z,59.3
2018-02-24T04:04:42.094Z,59.01
2018-02-24T04:05:42.095Z,59.18
2018-02-24T04:06:42.097Z,59.21
2018-02-24T04:07:42.102Z,59.28
2018-02-24T04:08:42.119Z,59.2
2018-02-24T04:09:41.957Z,59.26
2018-02-24T04:10:42.137Z,59.37
2018-02-24T04:11:42.123Z,59.52
2018-02-24T04:12:42.121Z,59.49
2018-02-24T04:13:42.150Z,59.44
2018-02-24T04:14:41.963Z,59.71
2018-02-24T04:15:41.969Z,59.67
2018-02-24T04:16:41.975Z,59.59
2018-02-24T04:17:41.982Z,59.75
2018-02-24T04:18:41.991Z,59.66
2018-02-24T04:19:41.984Z,59.79
2018-02-24T04:20:42.006Z,59.86
2018-02-24T04:21:41.997Z,60.03
2018-02-24T04:22:42.004Z,59.96
2018-02-24T04:23:42.162Z,59.54
2018-02-24T04:24:41.998Z,59.69
2018-02-24T04:25:41.994Z,59.63
2018-02-24T04:26:41.997Z,59.73
2018-02-24T04:27:41.994Z,59.78
2018-02-24T04:28:42.152Z,59.67
2018-02-24T04:29:42.015Z,59.71
2018-02-24T04:30:42.005Z,59.65
2018-02-24T04:31:42.009Z,59.8
2018-02-24T04:32:42.011Z,59.92
2018-02-24T04:33:42.013Z,59.71
2018-02-24T04:34:42.026Z,59.99
2018-02-24T04:35:42.019Z,59.76
2018-02-24T04:36:42.024Z,59.94
2018-02-24T04:37:42.032Z,60.04
2018-02-24T04:38:42.034Z,59.84
2018-02-24T04:39:42.059Z,59.79
2018-02-24T04:40:42.069Z,59.9
2018-02-24T04:41:42.039Z,59.94
2018-02-24T04:42:42.043Z,59.91
2018-02-24T04:43:42.045Z,59.9
2018-02-24T04:44:42.046Z,59.95
2018-02-24T04:45:42.040Z,59.98
2018-02-24T04:46:42.070Z,59.9
2018-02-24T04:47:42.047Z,60
2018-02-24T04:48:42.052Z,59.96
2018-02-24T04:49:42.280Z,60.04
2018-02-24T04:50:42.225Z,59.8
2018-02-24T04:51:42.209Z,59.88
2018-02-24T04:52:42.214Z,59.96
2018-02-24T04:53:42.226Z,59.98
2018-02-24T04:54:42.220Z,59.92
2018-02-24T04:55:42.217Z,59.98
2018-02-24T04:56:42.215Z,60.04
2018-02-24T04:57:42.064Z,60.11
2018-02-24T04:58:42.072Z,60.05
2018-02-24T04:59:42.092Z,59.93
2018-02-24T05:00:42.240Z,59.93
2018-02-24T05:01:42.241Z,60.01
2018-02-24T05:02:42.459Z,60.01
2018-02-24T05:03:42.255Z,60.3
2018-02-24T05:04:42.252Z,60.08
2018-02-24T05:05:42.255Z,59.88
2018-02-24T05:06:42.256Z,60.05
2018-02-24T05:07:42.277Z,60.13
2018-02-24T05:08:42.263Z,60.22
2018-02-24T05:09:42.099Z,60.14
2018-02-24T05:10:42.097Z,60.16
2018-02-24T05:11:42.107Z,60.28
2018-02-24T05:12:42.130Z,60.31
2018-02-24T05:13:42.115Z,60.25
2018-02-24T05:14:42.114Z,60.32
2018-02-24T05:15:42.119Z,60.3
2018-02-24T05:16:42.117Z,60.21
2018-02-24T05:17:42.383Z,60.26
2018-02-24T05:18:42.135Z,60.31
2018-02-24T05:19:42.133Z,60.11
2018-02-24T05:20:42.131Z,60.13
2018-02-24T05:21:42.138Z,60.17
2018-02-24T05:22:42.169Z,60.14
2018-02-24T05:23:42.149Z,60.26
2018-02-24T05:24:42.157Z,60.29
2018-02-24T05:25:42.163Z,60.35
2018-02-24T05:26:42.160Z,60.45
2018-02-24T05:27:42.171Z,60.36
2018-02-24T05:28:42.167Z,60.24
2018-02-24T05:29:42.164Z,60.05
2018-02-24T05:30:42.202Z,60.22
2018-02-24T05:31:42.178Z,60.11
2018-02-24T05:32:42.435Z,59.98
2018-02-24T05:33:42.173Z,59.92
2018-02-24T05:34:42.179Z,59.99
2018-02-24T05:35:42.175Z,60.11
2018-02-24T05:36:42.180Z,60.03
2018-02-24T05:37:42.200Z,60.24
2018-02-24T05:38:42.176Z,60.28
2018-02-24T05:39:42.212Z,60.27
2018-02-24T05:40:42.185Z,60.42
2018-02-24T05:41:42.186Z,60.55
2018-02-24T05:42:42.191Z,60.44
2018-02-24T05:43:42.199Z,60.48
2018-02-24T05:44:42.201Z,60.3
2018-02-24T05:45:42.210Z,60.41
2018-02-24T05:46:42.199Z,60.58
2018-02-24T05:47:42.206Z,60.45
2018-02-24T05:48:42.230Z,60.29
2018-02-24T05:49:42.204Z,60.16
2018-02-24T05:50:42.212Z,60.22
2018-02-24T05:51:42.218Z,60.3
2018-02-24T05:52:42.224Z,60.35
2018-02-24T05:53:42.247Z,60.3
2018-02-24T05:54:42.237Z,60.54
2018-02-24T05:55:42.246Z,60.57
2018-02-24T05:56:42.241Z,60.73
2018-02-24T05:57:42.237Z,60.63
2018-02-24T05:58:42.266Z,60.74
2018-02-24T05:59:42.252Z,60.43
2018-02-24T06:00:42.257Z,60.58
2018-02-24T06:01:42.425Z,60.62
2018-02-24T06:02:42.429Z,60.41
2018-02-24T06:03:42.429Z,60.52
2018-02-24T06:04:42.433Z,60.47
2018-02-24T06:05:42.432Z,60.45
2018-02-24T06:06:42.456Z,60.45
2018-02-24T06:07:42.449Z,60.37
2018-02-24T06:08:42.453Z,60.24
2018-02-24T06:09:42.472Z,60.28
2018-02-24T06:10:42.466Z,60.4
2018-02-24T06:11:42.463Z,60.14
2018-02-24T06:12:42.467Z,60.48
2018-02-24T06:13:42.473Z,60.42
2018-02-24T06:14:42.509Z,60.3
2018-02-24T06:15:42.468Z,60.29
2018-02-24T06:16:42.476Z,60.24
2018-02-24T06:17:42.473Z,60.37
2018-02-24T06:18:42.481Z,60.22
2018-02-24T06:19:42.512Z,60.36
2018-02-24T06:20:42.483Z,60.37
2018-02-24T06:21:42.328Z,60.29
2018-02-24T06:22:42.489Z,60.37
2018-02-24T06:23:42.490Z,60.53
2018-02-24T06:24:42.498Z,60.26
2018-02-24T06:25:42.500Z,60.33
2018-02-24T06:26:42.511Z,60.2
2018-02-24T06:27:42.509Z,60.56
2018-02-24T06:28:42.497Z,60.25
2018-02-24T06:29:42.350Z,60.22
2018-02-24T06:30:42.350Z,60.18
2018-02-24T06:31:42.511Z,60.29
2018-02-24T06:32:42.514Z,60.23
2018-02-24T06:33:42.513Z,60.22
2018-02-24T06:34:42.521Z,60.48
2018-02-24T06:35:42.531Z,60.48
2018-02-24T06:36:42.536Z,60.43
2018-02-24T06:37:42.388Z,60.26
2018-02-24T06:38:42.386Z,60.24
2018-02-24T06:39:42.568Z,60.26
2018-02-24T06:40:42.400Z,60.22
2018-02-24T06:41:42.410Z,60.02
2018-02-24T06:42:42.423Z,60.18
2018-02-24T06:43:42.413Z,60.08
2018-02-24T06:44:42.439Z,60.29
2018-02-24T06:45:42.444Z,60.13
2018-02-24T06:46:42.432Z,60.07
2018-02-24T06:47:42.437Z,59.99
2018-02-24T06:48:42.449Z,60.08
2018-02-24T06:49:42.473Z,60.07
2018-02-24T06:50:42.459Z,60.1
2018-02-24T06:51:42.455Z,59.96
2018-02-24T06:52:42.459Z,59.94
2018-02-24T06:53:42.468Z,59.92
2018-02-24T06:54:42.484Z,59.84
2018-02-24T06:55:42.620Z,59.93
2018-02-24T06:56:42.473Z,59.86
2018-02-24T06:57:42.479Z,59.8
2018-02-24T06:58:42.477Z,59.77
2018-02-24T06:59:42.484Z,59.7
2018-02-24T07:00:42.542Z,59.68
2018-02-24T07:01:42.490Z,59.73
2018-02-24T07:02:42.501Z,59.79
2018-02-24T07:03:42.497Z,59.72
2018-02-24T07:04:42.518Z,59.81
2018-02-24T07:05:42.506Z,59.4
2018-02-24T07:06:42.510Z,59.5
2018-02-24T07:07:42.506Z,59.39
2018-02-24T07:08:42.513Z,59.32
2018-02-24T07:09:42.534Z,58.95
2018-02-24T07:10:42.515Z,58.99
2018-02-24T07:11:42.520Z,59.06
2018-02-24T07:12:42.531Z,58.92
2018-02-24T07:13:42.696Z,58.82
2018-02-24T07:14:42.686Z,58.92
2018-02-24T07:15:42.697Z,58.82
2018-02-24T07:16:42.698Z,58.51
2018-02-24T07:17:42.699Z,58.43
2018-02-24T07:18:42.706Z,58.69
2018-02-24T07:19:42.707Z,58.5
2018-02-24T07:20:42.710Z,58.23
2018-02-24T07:21:42.715Z,58.22
2018-02-24T07:22:42.733Z,57.82
2018-02-24T07:23:42.729Z,58.04
2018-02-24T07:24:42.595Z,57.75
2018-02-24T07:25:42.575Z,57.76
2018-02-24T07:26:42.751Z,57.81
2018-02-24T07:27:42.744Z,57.86
2018-02-24T07:28:42.583Z,57.64
2018-02-24T07:29:42.745Z,57.82
2018-02-24T07:30:42.588Z,57.03
2018-02-24T07:31:42.598Z,57.34
2018-02-24T07:32:42.603Z,57.29
2018-02-24T07:33:42.618Z,57.57
2018-02-24T07:34:42.599Z,57.24
2018-02-24T07:35:42.602Z,57.3
2018-02-24T07:36:42.599Z,57.33
2018-02-24T07:37:42.604Z,57.41
2018-02-24T07:38:42.602Z,56.99
2018-02-24T07:39:42.605Z,56.86
2018-02-24T07:40:42.607Z,56.65
2018-02-24T07:41:42.609Z,56.45
2018-02-24T07:42:42.612Z,56.71
2018-02-24T07:43:42.609Z,56.44
2018-02-24T07:44:42.779Z,56.77
2018-02-24T07:45:42.621Z,56.23
2018-02-24T07:46:42.787Z,56.11
2018-02-24T07:47:42.791Z,55.97
2018-02-24T07:48:42.636Z,55.7
2018-02-24T07:49:42.635Z,55.67
2018-02-24T07:50:42.642Z,55.75
2018-02-24T07:51:42.659Z,55.72
2018-02-24T07:52:42.653Z,55.37
2018-02-24T07:53:42.652Z,55.18
2018-02-24T07:54:42.659Z,55.2
2018-02-24T07:55:42.924Z,55.23
2018-02-24T07:56:42.658Z,55.2
2018-02-24T07:57:42.663Z,55.1
2018-02-24T07:58:42.663Z,55.04
2018-02-24T07:59:42.670Z,55.11
2018-02-24T08:00:42.694Z,54.88
2018-02-24T08:01:42.679Z,54.9
2018-02-24T08:02:42.682Z,54.95
2018-02-24T08:03:42.687Z,55.67
2018-02-24T08:04:42.725Z,55
2018-02-24T08:05:42.723Z,54.54
2018-02-24T08:06:42.707Z,54.4
2018-02-24T08:07:42.714Z,54.36
2018-02-24T08:08:42.721Z,54.55
2018-02-24T08:09:42.715Z,54.71
2018-02-24T08:10:42.722Z,54.27
2018-02-24T08:11:42.730Z,54.32
2018-02-24T08:12:42.738Z,53.9
2018-02-24T08:13:42.745Z,53.69
2018-02-24T08:14:42.746Z,53.59
2018-02-24T08:15:42.772Z,53.7
2018-02-24T08:16:42.747Z,53.64
2018-02-24T08:17:42.907Z,53.79
2018-02-24T08:18:42.760Z,53.57
2018-02-24T08:19:42.766Z,53.45
2018-02-24T08:20:42.760Z,53.67
2018-02-24T08:21:42.761Z,53.08
2018-02-24T08:22:42.764Z,52.74
2018-02-24T08:23:42.769Z,53.25
2018-02-24T08:24:42.773Z,52.97
2018-02-24T08:25:42.927Z,53.02
2018-02-24T08:26:42.785Z,52.82
2018-02-24T08:27:42.940Z,52.73
2018-02-24T08:28:42.941Z,52.4
2018-02-24T08:29:42.942Z,52.17
2018-02-24T08:30:42.991Z,52.38
2018-02-24T08:31:42.942Z,52.21
2018-02-24T08:32:42.957Z,52.26
2018-02-24T08:33:42.951Z,52.11
2018-02-24T08:34:42.960Z,51.77
2018-02-24T08:35:42.981Z,51.87
2018-02-24T08:36:42.966Z,52.15
2018-02-24T08:37:42.989Z,52.51
2018-02-24T08:38:42.988Z,52.01
2018-02-24T08:39:43.000Z,52.12
2018-02-24T08:40:42.986Z,51.87
2018-02-24T08:41:42.979Z,52
2018-02-24T08:42:43.006Z,51.89
2018-02-24T08:43:42.824Z,51.64
2018-02-24T08:44:42.822Z,51.94
2018-02-24T08:45:42.825Z,51.75
2018-02-24T08:46:42.833Z,51.77
2018-02-24T08:47:42.832Z,51.14
2018-02-24T08:48:42.836Z,51.36
2018-02-24T08:49:42.997Z,51.57
2018-02-24T08:50:42.846Z,51.58
2018-02-24T08:51:42.881Z,51.77
2018-02-24T08:52:42.868Z,51.23
2018-02-24T08:53:42.854Z,51.22
2018-02-24T08:54:42.853Z,50.82
2018-02-24T08:55:42.854Z,50.83
2018-02-24T08:56:42.878Z,50.5
2018-02-24T08:57:42.857Z,50.36
2018-02-24T08:58:42.858Z,50.21
2018-02-24T08:59:42.874Z,50.34
2018-02-24T09:00:42.863Z,49.94
2018-02-24T09:01:42.890Z,50.01
2018-02-24T09:02:42.875Z,50.34
2018-02-24T09:03:42.881Z,50.1
2018-02-24T09:04:42.880Z,50.11
2018-02-24T09:05:42.876Z,49.81
2018-02-24T09:06:42.906Z,49.78
2018-02-24T09:07:42.879Z,49.88
2018-02-24T09:08:42.896Z,50.01
2018-02-24T09:09:42.874Z,49.44
2018-02-24T09:10:42.883Z,49.38
2018-02-24T09:11:42.909Z,49.08
2018-02-24T09:12:42.889Z,48.95
2018-02-24T09:13:42.886Z,49.01
2018-02-24T09:14:42.885Z,48.55
2018-02-24T09:15:42.968Z,48.67
2018-02-24T09:16:42.953Z,48.29
2018-02-24T09:17:42.899Z,48.48
2018-02-24T09:18:42.910Z,48.58
2018-02-24T09:19:43.096Z,48.65
2018-02-24T09:20:42.918Z,48.14
2018-02-24T09:21:42.918Z,48.22
2018-02-24T09:22:42.908Z,47.88
2018-02-24T09:23:42.898Z,47.77
2018-02-24T09:24:42.904Z,47.67
2018-02-24T09:25:42.914Z,47.08
2018-02-24T09:26:42.937Z,46.94
2018-02-24T09:27:42.910Z,46.83
2018-02-24T09:28:42.920Z,46.97
2018-02-24T09:29:42.947Z,47.05
2018-02-24T09:30:42.922Z,46.58
2018-02-24T09:31:42.936Z,46.23
2018-02-24T09:32:42.940Z,46.25
2018-02-24T09:33:42.939Z,46.17
2018-02-24T09:34:42.943Z,45.89
2018-02-24T09:35:42.947Z,46.15
2018-02-24T09:36:43.116Z,46.23
2018-02-24T09:37:43.117Z,46.03
2018-02-24T09:38:43.133Z,45.48
2018-02-24T09:39:43.125Z,45.59
2018-02-24T09:40:43.134Z,45.59
2018-02-24T09:41:43.121Z,45.72
2018-02-24T09:42:43.123Z,46.06
2018-02-24T09:43:43.153Z,45.71
2018-02-24T09:44:43.123Z,46.1
2018-02-24T09:45:43.130Z,45.68
2018-02-24T09:46:42.992Z,45.53
2018-02-24T09:47:43.134Z,45.46
2018-02-24T09:48:42.997Z,45.04
2018-02-24T09:49:43.141Z,45.05
2018-02-24T09:50:42.982Z,45.41
2018-02-24T09:51:43.143Z,44.94
2018-02-24T09:52:43.138Z,45.26
2018-02-24T09:53:42.982Z,45.16
2018-02-24T09:54:43.145Z,45.23
2018-02-24T09:55:43.164Z,45.11
2018-02-24T09:56:43.150Z,44.87
2018-02-24T09:57:43.157Z,44.9
2018-02-24T09:58:43.215Z,44.56
2018-02-24T09:59:43.157Z,44.28
2018-02-24T10:00:43.030Z,44.38
2018-02-24T10:01:43.170Z,44.21
2018-02-24T10:02:43.008Z,43.81
2018-02-24T10:03:43.009Z,43.96
2018-02-24T10:04:43.162Z,44.4
2018-02-24T10:05:43.176Z,44.01
2018-02-24T10:06:42.999Z,43.75
2018-02-24T10:07:43.005Z,43.8
2018-02-24T10:08:43.014Z,43.61
2018-02-24T10:09:43.007Z,43.57
2018-02-24T10:10:43.039Z,43.65
2018-02-24T10:11:43.019Z,43.34
2018-02-24T10:12:43.039Z,43.27
2018-02-24T10:13:43.026Z,42.97
2018-02-24T10:14:43.038Z,43.38
2018-02-24T10:15:43.059Z,43.58
2018-02-24T10:16:43.041Z,43.84
2018-02-24T10:17:43.059Z,43.7
2018-02-24T10:18:43.052Z,43.4
2018-02-24T10:19:43.057Z,43.28
2018-02-24T10:20:43.094Z,42.93
2018-02-24T10:21:43.064Z,43.22
2018-02-24T10:22:43.069Z,42.9
2018-02-24T10:23:43.064Z,43.49
2018-02-24T10:24:43.070Z,43.24
2018-02-24T10:25:43.070Z,43.48
2018-02-24T10:26:43.074Z,42.69
2018-02-24T10:27:43.081Z,42.64
2018-02-24T10:28:43.080Z,42.46
2018-02-24T10:29:43.086Z,42.96
2018-02-24T10:30:43.097Z,42.88
2018-02-24T10:31:43.096Z,43.13
2018-02-24T10:32:43.097Z,42.74
2018-02-24T10:33:43.095Z,42.5
2018-02-24T10:34:43.100Z,42.63
2018-02-24T10:35:43.098Z,42.74
2018-02-24T10:36:43.097Z,42.36
2018-02-24T10:37:43.119Z,42.2
2018-02-24T10:38:43.109Z,42.46
2018-02-24T10:39:43.107Z,43.06
2018-02-24T10:40:43.109Z,43.21
2018-02-24T10:41:43.117Z,42.65
2018-02-24T10:42:43.122Z,41.69
2018-02-24T10:43:43.121Z,41.54
2018-02-24T10:44:43.280Z,41.82
2018-02-24T10:45:43.133Z,41.51
2018-02-24T10:46:43.139Z,41.72
2018-02-24T10:47:43.305Z,41.79
2018-02-24T10:48:43.309Z,42.29
2018-02-24T10:49:43.313Z,41.69
2018-02-24T10:50:44.144Z,41.89
2018-02-24T10:51:43.167Z,41.77
2018-02-24T10:52:43.329Z,41.11
2018-02-24T10:53:43.165Z,41.09
2018-02-24T10:54:43.336Z,40.21
2018-02-24T10:55:43.175Z,40.36
2018-02-24T10:56:43.174Z,40.63
2018-02-24T10:57:43.397Z,40.41
2018-02-24T10:58:43.178Z,40.44
2018-02-24T10:59:43.335Z,39.76
2018-02-24T11:00:43.189Z,39.65
2018-02-24T11:01:43.188Z,40.01
2018-02-24T11:02:43.430Z,39.34
2018-02-24T11:03:43.362Z,39.18
2018-02-24T11:04:43.492Z,39.07
2018-02-24T11:05:43.249Z,38.94
2018-02-24T11:06:43.215Z,39.8
2018-02-24T11:07:43.220Z,39.93
2018-02-24T11:08:43.504Z,39.14
2018-02-24T11:09:43.377Z,38.96
2018-02-24T11:10:43.231Z,38.84
2018-02-24T11:11:43.398Z,38.87
2018-02-24T11:12:44.310Z,39.01
2018-02-24T11:13:43.260Z,39.2
2018-02-24T11:14:43.409Z,39.21
2018-02-24T11:15:43.259Z,39.23
2018-02-24T11:16:43.261Z,38.84
2018-02-24T11:17:43.416Z,38.93
2018-02-24T11:18:43.273Z,38.95
2018-02-24T11:19:43.690Z,38.72
2018-02-24T11:20:43.269Z,38.14
2018-02-24T11:21:43.275Z,37.89
2018-02-24T11:22:43.277Z,37.77
2018-02-24T11:23:43.278Z,38.67
2018-02-24T11:24:43.301Z,37.34
2018-02-24T11:25:43.280Z,37.53
2018-02-24T11:26:43.285Z,38.01
2018-02-24T11:27:43.329Z,38.04
2018-02-24T11:28:43.288Z,37.8
2018-02-24T11:29:43.311Z,37.81
2018-02-24T11:30:43.290Z,37.74
2018-02-24T11:31:43.291Z,37.18
2018-02-24T11:32:43.292Z,37.3
2018-02-24T11:33:43.297Z,36.85
2018-02-24T11:34:43.294Z,37.71
2018-02-24T11:35:43.303Z,37.78
2018-02-24T11:36:43.309Z,37.82
2018-02-24T11:37:43.312Z,37.64
2018-02-24T11:38:43.315Z,37.85
2018-02-24T11:39:43.319Z,37.58
2018-02-24T11:40:43.320Z,37.25
2018-02-24T11:41:43.327Z,37.24
2018-02-24T11:42:43.325Z,37.41
2018-02-24T11:43:43.320Z,37.34
2018-02-24T11:44:43.325Z,37.11
2018-02-24T11:45:43.335Z,37.32
2018-02-24T11:46:43.340Z,37.67
2018-02-24T11:47:43.365Z,37.71
2018-02-24T11:48:43.491Z,37.06
2018-02-24T11:49:43.340Z,37.24
2018-02-24T11:50:43.347Z,37.06
2018-02-24T11:51:43.357Z,37.38
2018-02-24T11:52:43.388Z,37.25
2018-02-24T11:53:43.360Z,37.49
2018-02-24T11:54:43.371Z,37.92
2018-02-24T11:55:43.367Z,37.65
2018-02-24T11:56:43.560Z,37.46
2018-02-24T11:57:43.404Z,38.29
2018-02-24T11:58:43.381Z,37.36
2018-02-24T11:59:43.385Z,37.28
2018-02-24T12:00:43.383Z,37.04
2018-02-24T12:01:43.551Z,37.08
2018-02-24T12:02:43.560Z,36.75
2018-02-24T12:03:43.542Z,36.95
2018-02-24T12:04:43.580Z,36.79
2018-02-24T12:05:43.397Z,36.92
2018-02-24T12:06:43.559Z,36.51
2018-02-24T12:07:43.547Z,36.69
2018-02-24T12:08:43.400Z,36.92
2018-02-24T12:09:43.589Z,37.19
2018-02-24T12:10:43.422Z,36.8
2018-02-24T12:11:43.399Z,36.97
2018-02-24T12:12:43.397Z,37.27
2018-02-24T12:13:43.428Z,36.94
2018-02-24T12:14:43.423Z,37.07
2018-02-24T12:15:43.579Z,37.21
2018-02-24T12:16:43.402Z,36.55
2018-02-24T12:17:43.559Z,36.75
2018-02-24T12:18:43.404Z,36.74
2018-02-24T12:19:43.571Z,36.64
2018-02-24T12:20:43.433Z,36.22
2018-02-24T12:21:43.415Z,36.6
2018-02-24T12:22:43.426Z,36.81
2018-02-24T12:23:43.422Z,36.3
2018-02-24T12:24:43.599Z,36.43
2018-02-24T12:25:43.613Z,36.55
2018-02-24T12:26:43.434Z,36.25
2018-02-24T12:27:43.439Z,36.45
2018-02-24T12:28:43.608Z,36.1
2018-02-24T12:29:43.457Z,35.67
2018-02-24T12:30:43.487Z,36.16
2018-02-24T12:31:43.468Z,36.24
2018-02-24T12:32:43.483Z,36.1
2018-02-24T12:33:43.472Z,36.03
2018-02-24T12:34:43.627Z,36.26
2018-02-24T12:35:43.673Z,35.76
2018-02-24T12:36:43.489Z,35.39
2018-02-24T12:37:43.489Z,35.46
2018-02-24T12:38:43.488Z,35.66
2018-02-24T12:39:43.497Z,35.58
2018-02-24T12:40:43.519Z,35.47
2018-02-24T12:41:43.655Z,35.82
2018-02-24T12:42:43.489Z,35.25
2018-02-24T12:43:43.492Z,35.54
2018-02-24T12:44:43.493Z,35.76
2018-02-24T12:45:43.873Z,35.63
2018-02-24T12:46:43.549Z,35.35
2018-02-24T12:47:43.507Z,35.43
2018-02-24T12:48:43.511Z,35.92
2018-02-24T12:49:43.517Z,35.12
2018-02-24T12:50:43.804Z,35.27
2018-02-24T12:51:43.528Z,34.89
2018-02-24T12:52:43.530Z,34.83
2018-02-24T12:53:43.530Z,34.92
2018-02-24T12:54:43.538Z,34.98
2018-02-24T12:55:43.568Z,35.49